• Join FlightAware (Why Join?)
  • Login
  • US Flag 
08:43AM EDT


 

Airport Tracker/Info


-or-


 

Live Flight TrackerFlight Track Log ✈ SWA3232 ✈ 25-May-2014 ✈ KSMF - KBUR

Flight Track Log - Related Links

Times and Time Zones

All times are in EDT time to prevent confusion due to time zone crossing. See the SWA3232 flight status page for this flight to view local times or setup timezone preferences in your user account.

Time Position Orientation Groundspeed Altitude Reporting Facility
EDT Latitude Longitude Course Direction KTS MPH feet Rate Location/Type
04:27PM 38.6167 -121.5167 123° Southeast 224 258 5,700  Level Northern Cal TRACON
04:28PM 38.5833 -121.4333 117° Southeast 270 311 8,500 2,940 Climbing Northern Cal TRACON
04:30PM 38.5131 -121.2781 120° Southeast 338 389 13,600 3,180 Climbing Oakland Center
04:31PM 38.4603 -121.1653 121° Southeast 366 421 17,200 3,360 Climbing Oakland Center
04:32PM 38.3099 -120.9922 109° East  Level FlightAware Approximate
04:32PM 38.4083 -121.0544 121° Southeast 379 436 20,500  Level Oakland Center
04:33PM 38.3497 -120.9319 121° Southeast 401 461 23,700 3,120 Climbing Oakland Center
04:34PM 38.2769 -120.7786 121° Southeast 417 480 26,900 2,580 Climbing Oakland Center
04:35PM 38.2142 -120.6425 120° Southeast 442 509 29,100 2,040 Climbing Oakland Center
04:36PM 38.1492 -120.5011 120° Southeast 458 527 31,200 2,700 Climbing Oakland Center
04:37PM 38.0544 -120.4036 141° Southeast 452 520 34,600 2,340 Climbing Oakland Center
04:38PM 37.9364 -120.3569 163° South 441 507 36,100 1,260 Climbing Oakland Center
04:39PM 37.8147 -120.3086 163° South 452 520 37,200 1,140 Climbing Oakland Center
04:40PM 37.6839 -120.2600 164° South 483 556 38,500 1,620 Climbing Oakland Center
04:41PM 37.5583 -120.2106 163° South 482 555 40,600 1,200 Climbing Oakland Center
04:42PM 37.4328 -120.1653 164° South 473 544 41,000 180 Climbing Oakland Center
04:43PM 37.3094 -120.1178 163° South 467 537 41,000  Level Oakland Center
04:44PM 37.1608 -120.0617 163° South 466 536 41,000  Level Oakland Center
04:45PM 37.0397 -120.0131 162° South 463 533 41,000 -840 Level Oakland Center
04:46PM 36.9183 -119.9656 163° South 458 527 39,400 -1,560 Descending Oakland Center
04:47PM 36.7950 -119.9203 164° South 459 528 37,900 -1,500 Descending Oakland Center
04:48PM 36.6703 -119.8711 162° South 465 535 36,400 -1,500 Descending Oakland Center
04:49PM 36.5458 -119.8258 164° South 465 535 34,900 -1,560 Descending Oakland Center
04:50PM 36.4214 -119.7792 163° South 465 535 33,300 -1,560 Descending Oakland Center
04:51PM 36.2947 -119.7314 163° South 467 537 31,800 -1,140 Descending Oakland Center
04:52PM 36.1683 -119.6831 163° South 469 540 31,000 -420 Descending Oakland Center
04:53PM 36.0403 -119.6367 164° South 472 543 31,000  Level Oakland Center
04:54PM 35.8833 -119.6189 175° South 471 542 31,000 -420 Level Oakland Center
04:55PM 35.7489 -119.6236 182° South 474 545 30,200 -900 Descending Oakland Center
04:56PM 35.6158 -119.6286 182° South 474 545 29,200 -600 Descending Oakland Center
04:57PM 35.4800 -119.6336 182° South 480 552 29,000 -120 Descending Oakland Center
04:58PM 35.3450 -119.6389 182° South 482 555 29,000 -60 Level Oakland Center
04:59PM 35.2156 -119.6067 169° South 481 554 28,900 -2,100 Descending Oakland Center
05:00PM 35.1069 -119.5125 145° Southeast 478 550 24,700 -2,640 Descending Oakland Center
05:01PM 34.9961 -119.4208 146° Southeast 483 556 23,500 -1,680 Descending Oakland Center
05:02PM 34.8986 -119.3375 145° Southeast 438 504 21,400 -2,220 Descending Oakland Center
05:03PM 34.8058 -119.2575 145° Southeast 419 482 19,000 -2,280 Descending Oakland Center
05:04PM 34.7158 -119.1806 145° Southeast 403 464 16,800 -1,980 Descending Oakland Center
05:06PM 34.5906 -119.0769 146° Southeast 360 414 14,400 -2,400 Descending Los Angeles Center
05:07PM 34.5072 -119.0067 145° Southeast 368 423 11,200 -2,040 Descending Los Angeles Center
05:08PM 34.4247 -118.9500 150° Southeast 336 387 10,200 -1,020 Descending Los Angeles Center
05:09PM 34.3611 -118.8850 140° Southeast 300 345 9,100 -1,380 Descending Los Angeles Center
05:10PM 34.3056 -118.8142 134° Southeast 291 335 7,400 -1,680 Descending Los Angeles Center
05:11PM 34.2556 -118.7194 123° Southeast 278 320 5,600 -1,260 Descending Los Angeles Center
05:12PM 34.2167 -118.6414 121° Southeast 275 316 4,900 -780 Descending Los Angeles Center
05:13PM 34.2017 -118.5733 105° East 236 272 4,100 -960 Descending Los Angeles Center
05:14PM 34.2000 -118.5061 92° East 204 235 3,000 -1,020 Descending Los Angeles Center
05:15PM 34.1994 -118.4483 91° East 185 213 2,100 -840 Descending Los Angeles Center
05:16PM 34.1989 -118.4039 91° East 158 182 1,300 -540 Descending Los Angeles Center
05:17PM 34.1992 -118.3581 90° East 143 165 1,000 -300 Descending Los Angeles Center